Monday, December 18, 2017, 11:34 AM EST
Back to Local

KFOK, The Gabreski Airport

Location: East Quogue, NY, United States Lat: 40.85
Local Time: 11:34 AM EST (16:34 GMT) Lon: -72.617
Time Zone: US/Eastern Elev: 65 ft

Show me the last for .
Show Decoded

2017-12-18 11:15 METAR KFOK 181615Z 00000KT 4SM -RA OVC014 03/00 A3006 RMK AO2 P0000 T00280000 $
                 =
2017-12-18 10:53 METAR KFOK 181553Z 00000KT 5SM -RA OVC015 03/M01 A3008 RMK AO2 RAB21 SLP186
                 P0000 T00281006 $ =
2017-12-18 10:03 METAR KFOK 181503Z 35003KT 10SM BKN021 OVC039 03/M02 A3011 RMK AO2 T00281017 $ =
2017-12-18 09:53 METAR KFOK 181453Z 01003KT 10SM SCT023 OVC037 03/M02 A3011 RMK AO2 SLP197
                 T00281017 $ =
2017-12-18 09:38 METAR KFOK 181438Z 00000KT 10SM SCT028 OVC037 03/M02 A3012 RMK AO2 T00281017 $ =
2017-12-18 09:23 METAR KFOK 181423Z 00000KT 10SM BKN027 OVC035 02/M02 A3012 RMK AO2 T00221022 $ =
2017-12-18 08:53 METAR KFOK 181353Z 00000KT 10SM OVC035 02/M02 A3012 RMK AO2 SLP201 T00221022 $ =
2017-12-18 07:53 METAR KFOK 181253Z 05003KT 10SM FEW033 OVC049 02/M03 A3014 RMK AO2 SLP207
                 T00221033 $ =
2017-12-18 06:53 METAR KFOK 181153Z AUTO 00000KT 10SM SCT060 OVC080 01/M06 A3016 RMK AO2 SLP212
                 T00111056 10011 20000 56013 $ =
2017-12-18 05:53 METAR KFOK 181053Z AUTO 00000KT 10SM OVC038 01/M07 A3017 RMK AO2 SLP215
                 T00111067 $ =
2017-12-18 04:53 METAR KFOK 180953Z AUTO 07003KT 10SM OVC060 00/M08 A3017 RMK AO2 SLP215
                 T00001078 $ =
2017-12-18 03:53 METAR KFOK 180853Z AUTO 04005KT 10SM BKN070 OVC095 00/M08 A3019 RMK AO2 SLP225
                 T00001083 56009 $ =
2017-12-18 03:06 METAR KFOK 180806Z AUTO 06005KT 10SM SCT024 OVC110 00/M08 A3021 RMK AO2
                 T00001083 $ =
2017-12-18 02:53 METAR KFOK 180753Z AUTO 06005KT 10SM BKN024 BKN120 00/M08 A3021 RMK AO2 SLP229
                 T00001083 $ =
2017-12-18 02:22 METAR KFOK 180722Z AUTO 06004KT 10SM BKN025 OVC110 00/M08 A3022 RMK AO2
                 T00001083 $ =
2017-12-18 01:53 METAR KFOK 180653Z AUTO 06006KT 10SM FEW025 BKN120 00/M09 A3021 RMK AO2 SLP229
                 T00001094 $ =
2017-12-18 01:45 METAR KFOK 180645Z AUTO 06005KT 10SM SCT025 SCT120 00/M10 A3021 RMK AO2
                 T00001100 $ =
2017-12-18 00:53 METAR KFOK 180553Z AUTO 06005KT 10SM OVC023 00/M09 A3022 RMK AO2 SLP234
                 T00001089 10000 21022 $ =
2017-12-18 00:20 METAR KFOK 180520Z AUTO 05004KT 10SM BKN022 M01/M09 A3023 RMK AO2 T10061094 $ =
2017-12-17 23:53 METAR KFOK 180453Z AUTO 07005KT 10SM FEW023 BKN120 M01/M08 A3023 RMK AO2 SLP235
                 T10061078 400061044 $ =
2017-12-17 22:53 METAR KFOK 180353Z 07003KT 10SM OVC110 M01/M06 A3026 RMK AO2 SLP245 T10061061 $
                 =
2017-12-17 21:53 METAR KFOK 180253Z 00000KT 10SM FEW024 BKN120 M01/M06 A3027 RMK AO2 SLP251
                 T10061061 58006 $ =
2017-12-17 20:53 METAR KFOK 180153Z 03004KT 10SM SCT120 M01/M06 A3028 RMK AO2 SLP255 T10111056 $
                 =
2017-12-17 19:53 METAR KFOK 180053Z 00000KT 10SM BKN060 M02/M06 A3029 RMK AO2 SLP259 T10171056 $
                 =
2017-12-17 18:53 METAR KFOK 172353Z 03004KT 10SM FEW060 M02/M06 A3029 RMK AO2 SLP257 T10221061
                 10006 21028 $ =
2017-12-17 17:53 METAR KFOK 172253Z 00000KT 10SM CLR M03/M07 A3028 RMK AO2 SLP254 T10281072 $ =
2017-12-17 16:53 METAR KFOK 172153Z 00000KT 10SM CLR M02/M07 A3027 RMK AO2 SLP251 T10171072 $ =
2017-12-17 15:53 METAR KFOK 172053Z 32006KT 10SM CLR 00/M07 A3026 RMK AO2 SLP248 T00001072 55004
                 $ =
2017-12-17 14:53 METAR KFOK 171953Z 30005KT 10SM OVC060 00/M07 A3026 RMK AO2 SLP246 T00001067 $ =
2017-12-17 13:53 METAR KFOK 171853Z 33007KT 10SM BKN034 OVC055 00/M07 A3025 RMK AO2 SLP245
                 T00001072 $ =
2017-12-17 12:53 METAR KFOK 171753Z 33008KT 10SM OVC035 M01/M07 A3028 RMK AO2 SLP253 T10061072
                 10000 21044 58012 $ =
2017-12-17 11:53 METAR KFOK 171653Z 34006KT 10SM OVC031 M01/M07 A3029 RMK AO2 SLP258 T10111072 $
                 =

Support USWX by starting your Amazon purchase here.